Anderson, CA

19:28 PDT le 02 septembre 2015 (GMT -0700)
Redding Municipal | | Change Station
CLOSE
Current Station
Aéroport
Location: Redding,
Altitude: 502 ft
Stations météo à proximité

Alt. 502 ft 40.51 °N, 122.30 °W | Updated 35 minutes ago

Ciel dégagé
Ciel dégagé
84 ° F
Paraît 83 ° F
N
13
Vent Variable Vent de Sud

Aujourd'hui
Haut(e) -- | Bas -- ° F
--% Risque de précip.
Hier
Haut(e) -- | Bas -- ° F
Precip. -- pouce
6:37 AM 7:39 PM
Lune gibbeuse décroissante, 75% visible
Pression 29.72 pouce
Visibilité 10.0 Miles terrestres
Nuages Ciel dégagé
indice de chaleur 83 ° F
Point de rosée 55 ° F
Humidité 37%
Précipitations 0.00 pouce
Profondeur de la couche neigeuse Non disponible.
UV 0 sur 12
Pollen 8.20 sur 12
Qualité de l'air Non disponible.
Flu Activity Non disponible.
METAR KRDD 030153Z 17011KT 10SM CLR 29/13 A2974 RMK AO2 SLP064 T02890128
Pression 29.72 pouce
Visibilité 10.0 Miles terrestres
Nuages Ciel dégagé
indice de chaleur 83 ° F
Point de rosée 55 ° F
Humidité 37%
Précipitations 0.00 pouce
Profondeur de la couche neigeuse Non disponible.
UV 0 sur 12
Pollen 8.20 sur 12
Qualité de l'air Non disponible.
Flu Activity Non disponible.
METAR KRDD 030153Z 17011KT 10SM CLR 29/13 A2974 RMK AO2 SLP064 T02890128

10-Day Weather Forecast

×

Almanac

Astronomie

Sep. 02, 2015 Lever Coucher
Temps réel
Crépuscule civil
Crépuscule nautique
Crépuscule astronomique
Lune
Durée de lumière visible
Longueur du jour
Tomorrow will be .
, % of the Moon is Illuminated

Extrêmes aujourd'hui

State Highs State Lows

Community

WunderPhotos

Upload Photos

1,851,877 Photos téléchargées !

WunderBlogs® & News

Nearby

Qualité de l'air

  Qualité de l'air Indice de la qualité de l'air Polluant
Not available.

Épaisseur de neige

Station Depth Altitude

Activité sismique

Ville Distance Mag. Time & Date
Minimum magnitude displayed is 2.5.

Températures des eaux côtières

Lieu Température

Stations

Stations météo à proximité

Emplacement de la station Température Refroidissement éolien Point de rosée Humidité Vent Precip. Alt. Mise à jour Type